sensor_id;sensor_type;location;lat;lon;timestamp;P1;durP1;ratioP1;P2;durP2;ratioP2
71814;SDS011;59659;41.520;23.794;2023-03-15T00:00:57;8.18;;;3.80;;
71814;SDS011;59659;41.520;23.794;2023-03-15T00:02:09;5.03;;;3.25;;
71814;SDS011;59659;41.520;23.794;2023-03-15T00:03:21;5.65;;;3.08;;
71814;SDS011;59659;41.520;23.794;2023-03-15T00:04:34;5.45;;;3.08;;
71814;SDS011;59659;41.520;23.794;2023-03-15T00:05:47;8.10;;;3.63;;
71814;SDS011;59659;41.520;23.794;2023-03-15T00:06:59;7.82;;;3.13;;
71814;SDS011;59659;41.520;23.794;2023-03-15T00:08:11;7.90;;;3.97;;
71814;SDS011;59659;41.520;23.794;2023-03-15T00:09:23;10.18;;;3.60;;
71814;SDS011;59659;41.520;23.794;2023-03-15T00:10:34;11.65;;;3.95;;
71814;SDS011;59659;41.520;23.794;2023-03-15T00:11:45;7.18;;;3.22;;
71814;SDS011;59659;41.520;23.794;2023-03-15T00:12:57;4.72;;;3.15;;
71814;SDS011;59659;41.520;23.794;2023-03-15T00:14:09;7.93;;;3.35;;
71814;SDS011;59659;41.520;23.794;2023-03-15T00:15:20;5.13;;;3.40;;
71814;SDS011;59659;41.520;23.794;2023-03-15T00:16:32;7.80;;;3.88;;
71814;SDS011;59659;41.520;23.794;2023-03-15T00:17:43;9.73;;;4.10;;
71814;SDS011;59659;41.520;23.794;2023-03-15T00:18:55;6.13;;;3.30;;
71814;SDS011;59659;41.520;23.794;2023-03-15T00:20:07;5.53;;;2.90;;
71814;SDS011;59659;41.520;23.794;2023-03-15T00:21:19;7.35;;;2.92;;
71814;SDS011;59659;41.520;23.794;2023-03-15T00:22:31;6.53;;;2.72;;
71814;SDS011;59659;41.520;23.794;2023-03-15T00:23:42;6.20;;;3.17;;
71814;SDS011;59659;41.520;23.794;2023-03-15T00:24:54;5.63;;;3.40;;
71814;SDS011;59659;41.520;23.794;2023-03-15T00:26:05;5.47;;;3.65;;
71814;SDS011;59659;41.520;23.794;2023-03-15T00:27:17;9.10;;;3.72;;
71814;SDS011;59659;41.520;23.794;2023-03-15T00:28:28;10.73;;;3.60;;
71814;SDS011;59659;41.520;23.794;2023-03-15T00:29:40;8.77;;;3.97;;
71814;SDS011;59659;41.520;23.794;2023-03-15T00:31:08;11.77;;;4.35;;
71814;SDS011;59659;41.520;23.794;2023-03-15T00:32:22;7.55;;;4.00;;
71814;SDS011;59659;41.520;23.794;2023-03-15T00:33:34;6.63;;;3.53;;
71814;SDS011;59659;41.520;23.794;2023-03-15T00:34:45;6.30;;;3.22;;
71814;SDS011;59659;41.520;23.794;2023-03-15T00:36:01;5.80;;;3.35;;
71814;SDS011;59659;41.520;23.794;2023-03-15T00:37:16;5.88;;;2.92;;
71814;SDS011;59659;41.520;23.794;2023-03-15T00:38:29;8.45;;;3.67;;
71814;SDS011;59659;41.520;23.794;2023-03-15T00:39:41;8.55;;;3.47;;
71814;SDS011;59659;41.520;23.794;2023-03-15T00:40:55;7.50;;;3.30;;
71814;SDS011;59659;41.520;23.794;2023-03-15T00:42:06;6.20;;;3.08;;
71814;SDS011;59659;41.520;23.794;2023-03-15T00:43:18;8.23;;;3.22;;
71814;SDS011;59659;41.520;23.794;2023-03-15T00:44:30;4.97;;;3.50;;
71814;SDS011;59659;41.520;23.794;2023-03-15T00:45:41;8.00;;;3.50;;
71814;SDS011;59659;41.520;23.794;2023-03-15T00:46:55;10.52;;;3.42;;
71814;SDS011;59659;41.520;23.794;2023-03-15T00:48:07;6.93;;;3.80;;
71814;SDS011;59659;41.520;23.794;2023-03-15T00:49:18;7.20;;;3.75;;
71814;SDS011;59659;41.520;23.794;2023-03-15T00:50:30;7.97;;;3.78;;
71814;SDS011;59659;41.520;23.794;2023-03-15T00:51:41;9.43;;;4.53;;
71814;SDS011;59659;41.520;23.794;2023-03-15T00:52:53;7.75;;;4.45;;
71814;SDS011;59659;41.520;23.794;2023-03-15T00:54:04;10.63;;;5.55;;
71814;SDS011;59659;41.520;23.794;2023-03-15T00:55:16;10.38;;;5.70;;
71814;SDS011;59659;41.520;23.794;2023-03-15T00:56:28;11.00;;;6.10;;
71814;SDS011;59659;41.520;23.794;2023-03-15T00:57:43;11.05;;;6.22;;
71814;SDS011;59659;41.520;23.794;2023-03-15T00:58:55;16.05;;;7.55;;
71814;SDS011;59659;41.520;23.794;2023-03-15T01:00:08;8.63;;;4.80;;
71814;SDS011;59659;41.520;23.794;2023-03-15T01:01:21;7.13;;;3.75;;
71814;SDS011;59659;41.520;23.794;2023-03-15T01:02:33;10.13;;;4.07;;
71814;SDS011;59659;41.520;23.794;2023-03-15T01:03:45;8.25;;;3.60;;
71814;SDS011;59659;41.520;23.794;2023-03-15T01:04:56;5.55;;;3.03;;
71814;SDS011;59659;41.520;23.794;2023-03-15T01:06:12;5.07;;;3.38;;
71814;SDS011;59659;41.520;23.794;2023-03-15T01:07:24;5.25;;;2.80;;
71814;SDS011;59659;41.520;23.794;2023-03-15T01:08:36;4.28;;;2.85;;
71814;SDS011;59659;41.520;23.794;2023-03-15T01:09:47;6.00;;;3.28;;
71814;SDS011;59659;41.520;23.794;2023-03-15T01:11:03;4.00;;;2.65;;
71814;SDS011;59659;41.520;23.794;2023-03-15T01:12:15;4.45;;;2.70;;
71814;SDS011;59659;41.520;23.794;2023-03-15T01:13:26;5.90;;;3.05;;
71814;SDS011;59659;41.520;23.794;2023-03-15T01:14:37;5.07;;;3.17;;
71814;SDS011;59659;41.520;23.794;2023-03-15T01:15:50;5.05;;;3.25;;
71814;SDS011;59659;41.520;23.794;2023-03-15T01:17:02;5.10;;;2.78;;
71814;SDS011;59659;41.520;23.794;2023-03-15T01:18:13;6.00;;;3.70;;
71814;SDS011;59659;41.520;23.794;2023-03-15T01:19:24;4.35;;;2.85;;
71814;SDS011;59659;41.520;23.794;2023-03-15T01:20:36;4.63;;;3.25;;
71814;SDS011;59659;41.520;23.794;2023-03-15T01:21:47;5.47;;;3.17;;
71814;SDS011;59659;41.520;23.794;2023-03-15T01:22:59;6.90;;;3.95;;
71814;SDS011;59659;41.520;23.794;2023-03-15T01:24:11;8.55;;;3.75;;
71814;SDS011;59659;41.520;23.794;2023-03-15T01:25:22;6.40;;;3.25;;
71814;SDS011;59659;41.520;23.794;2023-03-15T01:26:34;6.88;;;3.35;;
71814;SDS011;59659;41.520;23.794;2023-03-15T01:27:45;5.97;;;3.67;;
71814;SDS011;59659;41.520;23.794;2023-03-15T01:28:56;4.63;;;2.95;;
71814;SDS011;59659;41.520;23.794;2023-03-15T01:30:08;5.65;;;3.08;;
71814;SDS011;59659;41.520;23.794;2023-03-15T01:31:24;9.23;;;4.10;;
71814;SDS011;59659;41.520;23.794;2023-03-15T01:32:36;3.45;;;2.58;;
71814;SDS011;59659;41.520;23.794;2023-03-15T01:33:47;5.22;;;3.10;;
71814;SDS011;59659;41.520;23.794;2023-03-15T01:34:59;6.50;;;3.08;;
71814;SDS011;59659;41.520;23.794;2023-03-15T01:36:10;7.72;;;2.80;;
71814;SDS011;59659;41.520;23.794;2023-03-15T01:37:22;5.65;;;3.72;;
71814;SDS011;59659;41.520;23.794;2023-03-15T01:38:34;5.13;;;2.40;;
71814;SDS011;59659;41.520;23.794;2023-03-15T01:39:47;7.18;;;2.85;;
71814;SDS011;59659;41.520;23.794;2023-03-15T01:40:58;4.78;;;3.80;;
71814;SDS011;59659;41.520;23.794;2023-03-15T01:42:10;7.70;;;4.82;;
71814;SDS011;59659;41.520;23.794;2023-03-15T01:43:22;6.60;;;4.28;;
71814;SDS011;59659;41.520;23.794;2023-03-15T01:47:29;5.40;;;3.30;;
71814;SDS011;59659;41.520;23.794;2023-03-15T01:48:44;6.30;;;3.80;;
71814;SDS011;59659;41.520;23.794;2023-03-15T01:50:06;5.43;;;3.28;;
71814;SDS011;59659;41.520;23.794;2023-03-15T01:51:21;4.75;;;3.75;;
71814;SDS011;59659;41.520;23.794;2023-03-15T01:52:38;5.68;;;3.25;;
71814;SDS011;59659;41.520;23.794;2023-03-15T01:53:55;8.43;;;3.90;;
71814;SDS011;59659;41.520;23.794;2023-03-15T01:55:13;9.80;;;4.32;;
71814;SDS011;59659;41.520;23.794;2023-03-15T01:56:25;10.07;;;3.58;;
71814;SDS011;59659;41.520;23.794;2023-03-15T01:57:38;4.30;;;2.75;;
71814;SDS011;59659;41.520;23.794;2023-03-15T01:58:51;7.75;;;3.67;;
71814;SDS011;59659;41.520;23.794;2023-03-15T02:00:06;8.48;;;3.40;;
71814;SDS011;59659;41.520;23.794;2023-03-15T02:01:21;6.72;;;3.97;;
71814;SDS011;59659;41.520;23.794;2023-03-15T02:02:32;4.13;;;3.10;;
71814;SDS011;59659;41.520;23.794;2023-03-15T02:03:45;7.82;;;3.90;;
71814;SDS011;59659;41.520;23.794;2023-03-15T02:05:07;10.50;;;3.63;;
71814;SDS011;59659;41.520;23.794;2023-03-15T02:06:21;7.75;;;3.83;;
71814;SDS011;59659;41.520;23.794;2023-03-15T02:07:33;5.90;;;3.88;;
71814;SDS011;59659;41.520;23.794;2023-03-15T02:08:52;6.25;;;3.45;;
71814;SDS011;59659;41.520;23.794;2023-03-15T02:10:11;7.15;;;4.05;;
71814;SDS011;59659;41.520;23.794;2023-03-15T02:11:24;12.07;;;4.80;;
71814;SDS011;59659;41.520;23.794;2023-03-15T02:12:40;17.23;;;7.18;;
71814;SDS011;59659;41.520;23.794;2023-03-15T02:13:53;8.75;;;4.32;;
71814;SDS011;59659;41.520;23.794;2023-03-15T02:15:05;14.93;;;5.45;;
71814;SDS011;59659;41.520;23.794;2023-03-15T02:16:18;9.88;;;4.07;;
71814;SDS011;59659;41.520;23.794;2023-03-15T02:17:39;7.72;;;4.18;;
71814;SDS011;59659;41.520;23.794;2023-03-15T02:18:51;10.63;;;4.60;;
71814;SDS011;59659;41.520;23.794;2023-03-15T02:22:31;7.50;;;4.20;;
71814;SDS011;59659;41.520;23.794;2023-03-15T02:23:49;6.63;;;3.30;;
71814;SDS011;59659;41.520;23.794;2023-03-15T02:25:25;6.53;;;3.65;;
71814;SDS011;59659;41.520;23.794;2023-03-15T02:27:45;10.38;;;4.07;;
71814;SDS011;59659;41.520;23.794;2023-03-15T02:28:56;6.82;;;3.40;;
71814;SDS011;59659;41.520;23.794;2023-03-15T02:30:08;7.25;;;3.60;;
71814;SDS011;59659;41.520;23.794;2023-03-15T02:31:21;7.35;;;3.42;;
71814;SDS011;59659;41.520;23.794;2023-03-15T02:32:32;5.20;;;3.20;;
71814;SDS011;59659;41.520;23.794;2023-03-15T02:33:45;4.55;;;3.22;;
71814;SDS011;59659;41.520;23.794;2023-03-15T02:34:57;5.88;;;3.25;;
71814;SDS011;59659;41.520;23.794;2023-03-15T02:36:30;7.20;;;3.65;;
71814;SDS011;59659;41.520;23.794;2023-03-15T02:37:42;7.40;;;3.88;;
71814;SDS011;59659;41.520;23.794;2023-03-15T02:38:56;5.97;;;3.80;;
71814;SDS011;59659;41.520;23.794;2023-03-15T02:40:13;8.07;;;3.22;;
71814;SDS011;59659;41.520;23.794;2023-03-15T02:41:32;7.97;;;3.15;;
71814;SDS011;59659;41.520;23.794;2023-03-15T02:42:45;5.80;;;3.30;;
71814;SDS011;59659;41.520;23.794;2023-03-15T02:43:59;7.38;;;3.20;;
71814;SDS011;59659;41.520;23.794;2023-03-15T02:45:13;3.53;;;2.55;;
71814;SDS011;59659;41.520;23.794;2023-03-15T02:46:24;6.28;;;3.35;;
71814;SDS011;59659;41.520;23.794;2023-03-15T02:47:36;6.72;;;3.67;;
71814;SDS011;59659;41.520;23.794;2023-03-15T02:48:48;9.77;;;3.97;;
71814;SDS011;59659;41.520;23.794;2023-03-15T02:50:04;5.57;;;3.42;;
71814;SDS011;59659;41.520;23.794;2023-03-15T02:51:18;4.93;;;2.65;;
71814;SDS011;59659;41.520;23.794;2023-03-15T02:52:31;5.13;;;3.03;;
71814;SDS011;59659;41.520;23.794;2023-03-15T02:53:42;5.88;;;2.80;;
71814;SDS011;59659;41.520;23.794;2023-03-15T02:54:53;5.72;;;3.33;;
71814;SDS011;59659;41.520;23.794;2023-03-15T02:56:05;7.57;;;3.70;;
71814;SDS011;59659;41.520;23.794;2023-03-15T02:57:17;5.47;;;3.72;;
71814;SDS011;59659;41.520;23.794;2023-03-15T02:58:29;7.53;;;3.50;;
71814;SDS011;59659;41.520;23.794;2023-03-15T02:59:42;4.53;;;3.00;;
71814;SDS011;59659;41.520;23.794;2023-03-15T03:00:54;7.70;;;3.95;;
71814;SDS011;59659;41.520;23.794;2023-03-15T03:02:05;9.77;;;3.97;;
71814;SDS011;59659;41.520;23.794;2023-03-15T03:03:17;7.00;;;4.20;;
71814;SDS011;59659;41.520;23.794;2023-03-15T03:04:28;6.28;;;3.65;;
71814;SDS011;59659;41.520;23.794;2023-03-15T03:05:40;7.40;;;4.25;;
71814;SDS011;59659;41.520;23.794;2023-03-15T03:06:51;7.25;;;3.92;;
71814;SDS011;59659;41.520;23.794;2023-03-15T03:08:03;6.30;;;3.67;;
71814;SDS011;59659;41.520;23.794;2023-03-15T03:09:14;8.98;;;3.75;;
71814;SDS011;59659;41.520;23.794;2023-03-15T03:10:26;9.68;;;3.38;;
71814;SDS011;59659;41.520;23.794;2023-03-15T03:11:37;4.75;;;3.20;;
71814;SDS011;59659;41.520;23.794;2023-03-15T03:12:49;7.47;;;3.60;;
71814;SDS011;59659;41.520;23.794;2023-03-15T03:14:04;9.70;;;4.28;;
71814;SDS011;59659;41.520;23.794;2023-03-15T03:15:15;10.15;;;4.93;;
71814;SDS011;59659;41.520;23.794;2023-03-15T03:16:27;7.50;;;4.18;;
71814;SDS011;59659;41.520;23.794;2023-03-15T03:17:38;6.07;;;3.08;;
71814;SDS011;59659;41.520;23.794;2023-03-15T03:18:50;7.35;;;3.25;;
71814;SDS011;59659;41.520;23.794;2023-03-15T03:20:05;6.72;;;3.53;;
71814;SDS011;59659;41.520;23.794;2023-03-15T03:21:20;5.63;;;3.30;;
71814;SDS011;59659;41.520;23.794;2023-03-15T03:22:31;9.60;;;3.97;;
71814;SDS011;59659;41.520;23.794;2023-03-15T03:23:44;7.05;;;4.00;;
71814;SDS011;59659;41.520;23.794;2023-03-15T03:24:56;5.38;;;3.45;;
71814;SDS011;59659;41.520;23.794;2023-03-15T03:26:15;13.02;;;3.97;;
71814;SDS011;59659;41.520;23.794;2023-03-15T03:27:27;12.95;;;3.70;;
71814;SDS011;59659;41.520;23.794;2023-03-15T03:28:38;5.05;;;3.15;;
71814;SDS011;59659;41.520;23.794;2023-03-15T03:29:51;11.27;;;6.18;;
71814;SDS011;59659;41.520;23.794;2023-03-15T03:31:03;13.48;;;5.72;;
71814;SDS011;59659;41.520;23.794;2023-03-15T03:32:15;9.50;;;4.55;;
71814;SDS011;59659;41.520;23.794;2023-03-15T03:33:26;8.38;;;4.82;;
71814;SDS011;59659;41.520;23.794;2023-03-15T03:34:38;12.98;;;5.53;;
71814;SDS011;59659;41.520;23.794;2023-03-15T03:35:49;12.55;;;5.28;;
71814;SDS011;59659;41.520;23.794;2023-03-15T03:37:01;8.00;;;4.07;;
71814;SDS011;59659;41.520;23.794;2023-03-15T03:38:13;7.22;;;3.92;;
71814;SDS011;59659;41.520;23.794;2023-03-15T03:39:24;5.35;;;3.85;;
71814;SDS011;59659;41.520;23.794;2023-03-15T03:40:36;7.63;;;4.38;;
71814;SDS011;59659;41.520;23.794;2023-03-15T03:41:48;12.55;;;4.60;;
71814;SDS011;59659;41.520;23.794;2023-03-15T03:43:00;18.23;;;6.00;;
71814;SDS011;59659;41.520;23.794;2023-03-15T03:44:11;8.80;;;4.28;;
71814;SDS011;59659;41.520;23.794;2023-03-15T03:45:23;9.82;;;5.35;;
71814;SDS011;59659;41.520;23.794;2023-03-15T03:46:34;10.35;;;4.03;;
71814;SDS011;59659;41.520;23.794;2023-03-15T03:47:46;7.78;;;4.10;;
71814;SDS011;59659;41.520;23.794;2023-03-15T03:48:58;9.52;;;5.18;;
71814;SDS011;59659;41.520;23.794;2023-03-15T03:50:10;8.35;;;4.82;;
71814;SDS011;59659;41.520;23.794;2023-03-15T03:51:22;8.93;;;4.38;;
71814;SDS011;59659;41.520;23.794;2023-03-15T03:52:33;7.85;;;4.90;;
71814;SDS011;59659;41.520;23.794;2023-03-15T03:53:45;13.82;;;4.35;;
71814;SDS011;59659;41.520;23.794;2023-03-15T03:54:56;9.98;;;4.90;;
71814;SDS011;59659;41.520;23.794;2023-03-15T03:56:08;6.47;;;4.53;;
71814;SDS011;59659;41.520;23.794;2023-03-15T03:57:19;11.52;;;4.70;;
71814;SDS011;59659;41.520;23.794;2023-03-15T03:58:31;7.95;;;4.97;;
71814;SDS011;59659;41.520;23.794;2023-03-15T03:59:42;7.97;;;5.32;;
71814;SDS011;59659;41.520;23.794;2023-03-15T04:00:54;8.10;;;5.03;;
71814;SDS011;59659;41.520;23.794;2023-03-15T04:02:05;7.35;;;4.72;;
71814;SDS011;59659;41.520;23.794;2023-03-15T04:03:17;8.98;;;5.10;;
71814;SDS011;59659;41.520;23.794;2023-03-15T04:04:28;13.77;;;5.40;;
71814;SDS011;59659;41.520;23.794;2023-03-15T04:05:40;8.93;;;5.88;;
71814;SDS011;59659;41.520;23.794;2023-03-15T04:06:52;12.70;;;6.40;;
71814;SDS011;59659;41.520;23.794;2023-03-15T04:08:04;13.50;;;6.82;;
71814;SDS011;59659;41.520;23.794;2023-03-15T04:09:16;10.85;;;6.28;;
71814;SDS011;59659;41.520;23.794;2023-03-15T04:10:27;12.23;;;5.05;;
71814;SDS011;59659;41.520;23.794;2023-03-15T04:11:39;7.97;;;5.13;;
71814;SDS011;59659;41.520;23.794;2023-03-15T04:12:53;5.95;;;3.53;;
71814;SDS011;59659;41.520;23.794;2023-03-15T04:14:05;6.07;;;4.07;;
71814;SDS011;59659;41.520;23.794;2023-03-15T04:15:16;9.10;;;4.28;;
71814;SDS011;59659;41.520;23.794;2023-03-15T04:16:28;8.15;;;4.57;;
71814;SDS011;59659;41.520;23.794;2023-03-15T04:17:39;6.43;;;3.35;;
71814;SDS011;59659;41.520;23.794;2023-03-15T04:18:51;7.22;;;3.78;;
71814;SDS011;59659;41.520;23.794;2023-03-15T04:20:06;7.32;;;3.92;;
71814;SDS011;59659;41.520;23.794;2023-03-15T04:21:20;6.20;;;3.97;;
71814;SDS011;59659;41.520;23.794;2023-03-15T04:22:33;6.07;;;4.15;;
71814;SDS011;59659;41.520;23.794;2023-03-15T04:23:45;5.40;;;3.45;;
71814;SDS011;59659;41.520;23.794;2023-03-15T04:24:56;6.10;;;3.75;;
71814;SDS011;59659;41.520;23.794;2023-03-15T04:26:08;8.07;;;4.10;;
71814;SDS011;59659;41.520;23.794;2023-03-15T04:27:19;13.40;;;5.68;;
71814;SDS011;59659;41.520;23.794;2023-03-15T04:28:31;10.93;;;4.88;;
71814;SDS011;59659;41.520;23.794;2023-03-15T04:29:42;5.88;;;3.95;;
71814;SDS011;59659;41.520;23.794;2023-03-15T04:30:54;9.80;;;4.55;;
71814;SDS011;59659;41.520;23.794;2023-03-15T04:32:09;7.97;;;4.72;;
71814;SDS011;59659;41.520;23.794;2023-03-15T04:33:21;7.38;;;4.38;;
71814;SDS011;59659;41.520;23.794;2023-03-15T04:34:34;8.80;;;5.65;;
71814;SDS011;59659;41.520;23.794;2023-03-15T04:35:49;12.65;;;5.88;;
71814;SDS011;59659;41.520;23.794;2023-03-15T04:37:03;13.02;;;4.75;;
71814;SDS011;59659;41.520;23.794;2023-03-15T04:38:14;9.13;;;5.05;;
71814;SDS011;59659;41.520;23.794;2023-03-15T04:39:26;11.85;;;6.05;;
71814;SDS011;59659;41.520;23.794;2023-03-15T04:40:38;12.27;;;4.38;;
71814;SDS011;59659;41.520;23.794;2023-03-15T04:41:49;7.65;;;4.53;;
71814;SDS011;59659;41.520;23.794;2023-03-15T04:43:02;6.72;;;3.63;;
71814;SDS011;59659;41.520;23.794;2023-03-15T04:44:13;9.35;;;3.65;;
71814;SDS011;59659;41.520;23.794;2023-03-15T04:45:26;8.05;;;3.90;;
71814;SDS011;59659;41.520;23.794;2023-03-15T04:46:38;5.38;;;3.55;;
71814;SDS011;59659;41.520;23.794;2023-03-15T04:47:51;17.40;;;8.40;;
71814;SDS011;59659;41.520;23.794;2023-03-15T04:49:02;37.13;;;15.40;;
71814;SDS011;59659;41.520;23.794;2023-03-15T04:50:15;50.65;;;21.85;;
71814;SDS011;59659;41.520;23.794;2023-03-15T04:51:27;55.72;;;27.35;;
71814;SDS011;59659;41.520;23.794;2023-03-15T04:52:38;55.30;;;26.42;;
71814;SDS011;59659;41.520;23.794;2023-03-15T04:53:49;44.78;;;22.63;;
71814;SDS011;59659;41.520;23.794;2023-03-15T04:55:01;48.15;;;22.13;;
71814;SDS011;59659;41.520;23.794;2023-03-15T04:56:13;23.33;;;12.90;;
71814;SDS011;59659;41.520;23.794;2023-03-15T04:57:24;18.75;;;9.57;;
71814;SDS011;59659;41.520;23.794;2023-03-15T04:58:36;17.95;;;8.05;;
71814;SDS011;59659;41.520;23.794;2023-03-15T04:59:47;10.27;;;6.55;;
71814;SDS011;59659;41.520;23.794;2023-03-15T05:00:59;16.80;;;8.52;;
71814;SDS011;59659;41.520;23.794;2023-03-15T05:02:10;16.15;;;7.93;;
71814;SDS011;59659;41.520;23.794;2023-03-15T05:03:22;26.17;;;14.45;;
71814;SDS011;59659;41.520;23.794;2023-03-15T05:04:33;32.65;;;17.25;;
71814;SDS011;59659;41.520;23.794;2023-03-15T05:05:45;23.00;;;11.68;;
71814;SDS011;59659;41.520;23.794;2023-03-15T05:06:56;24.80;;;10.70;;
71814;SDS011;59659;41.520;23.794;2023-03-15T05:08:08;27.15;;;12.68;;
71814;SDS011;59659;41.520;23.794;2023-03-15T05:09:19;22.42;;;11.90;;
71814;SDS011;59659;41.520;23.794;2023-03-15T05:10:32;38.67;;;17.58;;
71814;SDS011;59659;41.520;23.794;2023-03-15T05:11:44;29.38;;;15.48;;
71814;SDS011;59659;41.520;23.794;2023-03-15T05:12:56;44.67;;;18.08;;
71814;SDS011;59659;41.520;23.794;2023-03-15T05:14:07;41.22;;;18.95;;
71814;SDS011;59659;41.520;23.794;2023-03-15T05:15:19;38.63;;;18.25;;
71814;SDS011;59659;41.520;23.794;2023-03-15T05:16:30;38.03;;;18.42;;
71814;SDS011;59659;41.520;23.794;2023-03-15T05:17:42;31.75;;;16.40;;
71814;SDS011;59659;41.520;23.794;2023-03-15T05:18:56;35.25;;;15.10;;
71814;SDS011;59659;41.520;23.794;2023-03-15T05:20:08;26.27;;;13.40;;
71814;SDS011;59659;41.520;23.794;2023-03-15T05:21:23;18.67;;;9.57;;
71814;SDS011;59659;41.520;23.794;2023-03-15T05:22:35;25.58;;;10.10;;
71814;SDS011;59659;41.520;23.794;2023-03-15T05:23:46;22.60;;;8.95;;
71814;SDS011;59659;41.520;23.794;2023-03-15T05:24:58;23.48;;;10.43;;
71814;SDS011;59659;41.520;23.794;2023-03-15T05:26:10;25.73;;;11.77;;
71814;SDS011;59659;41.520;23.794;2023-03-15T05:27:21;24.92;;;12.63;;
71814;SDS011;59659;41.520;23.794;2023-03-15T05:28:33;36.13;;;12.18;;
71814;SDS011;59659;41.520;23.794;2023-03-15T05:29:45;26.50;;;10.30;;
71814;SDS011;59659;41.520;23.794;2023-03-15T05:30:56;16.85;;;9.05;;
71814;SDS011;59659;41.520;23.794;2023-03-15T05:32:10;22.40;;;10.65;;
71814;SDS011;59659;41.520;23.794;2023-03-15T05:33:22;19.60;;;9.93;;
71814;SDS011;59659;41.520;23.794;2023-03-15T05:34:34;18.60;;;9.55;;
71814;SDS011;59659;41.520;23.794;2023-03-15T05:35:46;35.08;;;16.65;;
71814;SDS011;59659;41.520;23.794;2023-03-15T05:36:58;33.58;;;14.90;;
71814;SDS011;59659;41.520;23.794;2023-03-15T05:38:10;30.25;;;14.63;;
71814;SDS011;59659;41.520;23.794;2023-03-15T05:39:24;42.28;;;17.60;;
71814;SDS011;59659;41.520;23.794;2023-03-15T05:40:36;31.52;;;15.95;;
71814;SDS011;59659;41.520;23.794;2023-03-15T05:41:47;26.10;;;11.77;;
71814;SDS011;59659;41.520;23.794;2023-03-15T05:42:59;24.08;;;12.45;;
71814;SDS011;59659;41.520;23.794;2023-03-15T05:44:10;18.15;;;9.68;;
71814;SDS011;59659;41.520;23.794;2023-03-15T05:45:22;15.65;;;8.02;;
71814;SDS011;59659;41.520;23.794;2023-03-15T05:46:34;18.73;;;9.18;;
71814;SDS011;59659;41.520;23.794;2023-03-15T05:47:45;13.77;;;7.63;;
71814;SDS011;59659;41.520;23.794;2023-03-15T05:48:57;21.77;;;9.63;;
71814;SDS011;59659;41.520;23.794;2023-03-15T05:50:08;13.65;;;7.70;;
71814;SDS011;59659;41.520;23.794;2023-03-15T05:51:20;17.73;;;8.93;;
71814;SDS011;59659;41.520;23.794;2023-03-15T05:52:31;24.30;;;9.63;;
71814;SDS011;59659;41.520;23.794;2023-03-15T05:53:43;22.40;;;10.50;;
71814;SDS011;59659;41.520;23.794;2023-03-15T05:54:56;26.70;;;12.18;;
71814;SDS011;59659;41.520;23.794;2023-03-15T05:56:08;21.55;;;11.27;;
71814;SDS011;59659;41.520;23.794;2023-03-15T05:57:19;38.15;;;14.13;;
71814;SDS011;59659;41.520;23.794;2023-03-15T05:58:30;25.33;;;12.50;;
71814;SDS011;59659;41.520;23.794;2023-03-15T05:59:42;16.10;;;8.90;;
71814;SDS011;59659;41.520;23.794;2023-03-15T06:00:53;12.73;;;8.68;;
71814;SDS011;59659;41.520;23.794;2023-03-15T06:02:05;19.05;;;11.55;;
71814;SDS011;59659;41.520;23.794;2023-03-15T06:03:16;18.85;;;9.65;;
71814;SDS011;59659;41.520;23.794;2023-03-15T06:04:28;16.00;;;8.45;;
71814;SDS011;59659;41.520;23.794;2023-03-15T06:05:39;15.35;;;7.50;;
71814;SDS011;59659;41.520;23.794;2023-03-15T06:06:51;20.05;;;9.88;;
71814;SDS011;59659;41.520;23.794;2023-03-15T06:08:03;33.63;;;13.25;;
71814;SDS011;59659;41.520;23.794;2023-03-15T06:09:14;30.73;;;14.10;;
71814;SDS011;59659;41.520;23.794;2023-03-15T06:10:26;23.23;;;10.50;;
71814;SDS011;59659;41.520;23.794;2023-03-15T06:11:37;17.95;;;9.10;;
71814;SDS011;59659;41.520;23.794;2023-03-15T06:12:49;18.92;;;9.82;;
71814;SDS011;59659;41.520;23.794;2023-03-15T06:14:01;19.10;;;8.70;;
71814;SDS011;59659;41.520;23.794;2023-03-15T06:15:13;14.23;;;8.80;;
71814;SDS011;59659;41.520;23.794;2023-03-15T06:16:24;18.35;;;9.73;;
71814;SDS011;59659;41.520;23.794;2023-03-15T06:17:36;15.98;;;9.07;;
71814;SDS011;59659;41.520;23.794;2023-03-15T06:18:47;22.20;;;9.45;;
71814;SDS011;59659;41.520;23.794;2023-03-15T06:19:59;16.70;;;8.27;;
71814;SDS011;59659;41.520;23.794;2023-03-15T06:21:10;18.95;;;9.57;;
71814;SDS011;59659;41.520;23.794;2023-03-15T06:22:22;15.05;;;8.60;;
71814;SDS011;59659;41.520;23.794;2023-03-15T06:23:34;15.27;;;8.85;;
71814;SDS011;59659;41.520;23.794;2023-03-15T06:24:46;14.30;;;7.07;;
71814;SDS011;59659;41.520;23.794;2023-03-15T06:25:57;10.80;;;5.97;;
71814;SDS011;59659;41.520;23.794;2023-03-15T06:27:09;16.58;;;5.80;;
71814;SDS011;59659;41.520;23.794;2023-03-15T06:28:20;10.77;;;5.22;;
71814;SDS011;59659;41.520;23.794;2023-03-15T06:29:32;11.15;;;6.32;;
71814;SDS011;59659;41.520;23.794;2023-03-15T06:30:43;8.02;;;5.13;;
71814;SDS011;59659;41.520;23.794;2023-03-15T06:31:55;10.45;;;6.05;;
71814;SDS011;59659;41.520;23.794;2023-03-15T06:33:06;12.43;;;6.32;;
71814;SDS011;59659;41.520;23.794;2023-03-15T06:34:18;13.43;;;6.55;;
71814;SDS011;59659;41.520;23.794;2023-03-15T06:35:31;23.13;;;7.93;;
71814;SDS011;59659;41.520;23.794;2023-03-15T06:36:43;16.73;;;9.02;;
71814;SDS011;59659;41.520;23.794;2023-03-15T06:37:55;13.23;;;7.70;;
71814;SDS011;59659;41.520;23.794;2023-03-15T06:39:07;21.63;;;7.63;;
71814;SDS011;59659;41.520;23.794;2023-03-15T06:40:18;15.07;;;8.15;;
71814;SDS011;59659;41.520;23.794;2023-03-15T06:41:30;20.73;;;8.55;;
71814;SDS011;59659;41.520;23.794;2023-03-15T06:42:42;13.93;;;7.05;;
71814;SDS011;59659;41.520;23.794;2023-03-15T06:43:54;10.57;;;6.25;;
71814;SDS011;59659;41.520;23.794;2023-03-15T06:45:06;13.35;;;5.75;;
71814;SDS011;59659;41.520;23.794;2023-03-15T06:46:18;7.90;;;4.32;;
71814;SDS011;59659;41.520;23.794;2023-03-15T06:47:30;8.20;;;4.82;;
71814;SDS011;59659;41.520;23.794;2023-03-15T06:48:41;15.50;;;7.97;;
71814;SDS011;59659;41.520;23.794;2023-03-15T06:49:53;18.10;;;5.93;;
71814;SDS011;59659;41.520;23.794;2023-03-15T06:51:07;10.15;;;5.15;;
71814;SDS011;59659;41.520;23.794;2023-03-15T06:52:19;8.63;;;4.30;;
71814;SDS011;59659;41.520;23.794;2023-03-15T06:53:31;9.70;;;4.95;;
71814;SDS011;59659;41.520;23.794;2023-03-15T06:54:42;10.85;;;6.05;;
71814;SDS011;59659;41.520;23.794;2023-03-15T06:55:54;12.98;;;5.60;;
71814;SDS011;59659;41.520;23.794;2023-03-15T06:57:05;9.45;;;4.65;;
71814;SDS011;59659;41.520;23.794;2023-03-15T06:58:17;12.63;;;5.45;;
71814;SDS011;59659;41.520;23.794;2023-03-15T06:59:28;13.18;;;5.25;;
71814;SDS011;59659;41.520;23.794;2023-03-15T07:00:39;8.30;;;4.18;;
71814;SDS011;59659;41.520;23.794;2023-03-15T07:01:51;14.80;;;5.43;;
71814;SDS011;59659;41.520;23.794;2023-03-15T07:03:03;11.07;;;6.05;;
71814;SDS011;59659;41.520;23.794;2023-03-15T07:04:14;10.20;;;5.57;;
71814;SDS011;59659;41.520;23.794;2023-03-15T07:05:26;15.13;;;6.90;;
71814;SDS011;59659;41.520;23.794;2023-03-15T07:06:37;11.35;;;6.65;;
71814;SDS011;59659;41.520;23.794;2023-03-15T07:07:49;11.45;;;5.95;;
71814;SDS011;59659;41.520;23.794;2023-03-15T07:09:01;15.27;;;7.30;;
71814;SDS011;59659;41.520;23.794;2023-03-15T07:10:13;16.67;;;8.07;;
71814;SDS011;59659;41.520;23.794;2023-03-15T07:11:24;14.35;;;6.05;;
71814;SDS011;59659;41.520;23.794;2023-03-15T07:12:36;8.45;;;5.05;;